createdAt,value
2023-04-21T00:00:10.516Z,9.80
2023-04-21T00:02:39.938Z,11.13
2023-04-21T00:05:13.971Z,11.00
2023-04-21T00:07:41.830Z,10.75
2023-04-21T00:10:10.633Z,11.60
2023-04-21T00:12:38.484Z,11.30
2023-04-21T00:15:06.591Z,12.52
2023-04-21T00:17:33.806Z,11.55
2023-04-21T00:20:00.942Z,11.98
2023-04-21T00:22:28.033Z,11.52
2023-04-21T00:24:55.215Z,11.77
2023-04-21T00:27:22.338Z,13.20
2023-04-21T00:29:49.625Z,13.25
2023-04-21T00:32:18.156Z,11.50
2023-04-21T00:34:45.582Z,12.70
2023-04-21T00:37:12.713Z,11.85
2023-04-21T00:39:40.009Z,12.23
2023-04-21T00:42:07.180Z,12.20
2023-04-21T00:44:36.089Z,12.45
2023-04-21T00:47:04.382Z,22.60
2023-04-21T00:49:31.842Z,14.80
2023-04-21T00:51:59.357Z,13.93
2023-04-21T00:54:27.521Z,13.60
2023-04-21T00:56:55.882Z,13.48
2023-04-21T00:59:23.727Z,14.77
2023-04-21T01:01:52.956Z,15.27
2023-04-21T01:04:21.913Z,14.88
2023-04-21T01:06:49.152Z,15.07
2023-04-21T01:09:16.709Z,13.13
2023-04-21T01:12:07.420Z,15.45
2023-04-21T01:14:39.257Z,15.00
2023-04-21T01:17:08.015Z,14.75
2023-04-21T01:19:42.877Z,11.80
2023-04-21T01:22:11.818Z,14.40
2023-04-21T01:24:43.840Z,12.88
2023-04-21T01:27:15.115Z,15.95
2023-04-21T01:29:43.872Z,13.75
2023-04-21T01:32:15.077Z,14.90
2023-04-21T01:34:43.870Z,13.02
2023-04-21T01:37:13.537Z,16.80
2023-04-21T01:39:42.398Z,17.50
2023-04-21T01:42:09.971Z,15.38
2023-04-21T01:44:37.622Z,13.63
2023-04-21T01:47:05.083Z,12.65
2023-04-21T01:49:32.395Z,13.23
2023-04-21T01:51:59.517Z,14.63
2023-04-21T01:54:26.784Z,15.27
2023-04-21T01:56:54.048Z,14.65
2023-04-21T01:59:21.855Z,16.27
2023-04-21T02:01:49.114Z,13.77
2023-04-21T02:04:16.364Z,13.73
2023-04-21T02:06:43.908Z,13.93
2023-04-21T02:09:11.274Z,15.20
2023-04-21T02:11:38.437Z,15.88
2023-04-21T02:14:06.146Z,15.20
2023-04-21T02:16:33.341Z,13.75
2023-04-21T02:19:01.432Z,15.85
2023-04-21T02:21:28.767Z,14.60
2023-04-21T02:23:56.400Z,17.50
2023-04-21T02:26:26.624Z,16.13
2023-04-21T02:28:54.298Z,15.68
2023-04-21T02:31:21.460Z,18.20
2023-04-21T02:33:48.924Z,15.90
2023-04-21T02:36:16.091Z,18.23
2023-04-21T02:38:43.248Z,17.55
2023-04-21T02:41:11.115Z,19.02
2023-04-21T02:43:38.325Z,18.15
2023-04-21T02:46:09.471Z,15.70
2023-04-21T02:48:36.935Z,18.60
2023-04-21T02:51:04.833Z,16.02
2023-04-21T02:53:32.818Z,14.82
2023-04-21T02:56:02.449Z,17.48
2023-04-21T02:58:31.207Z,17.08
2023-04-21T03:00:58.410Z,14.95
2023-04-21T03:03:26.002Z,16.77
2023-04-21T03:06:01.212Z,15.02
2023-04-21T03:08:28.540Z,16.25
2023-04-21T03:10:55.831Z,16.48
2023-04-21T03:13:24.268Z,15.02
2023-04-21T03:15:52.367Z,15.07
2023-04-21T03:18:19.528Z,17.75
2023-04-21T03:20:46.588Z,17.45
2023-04-21T03:23:13.857Z,16.92
2023-04-21T03:25:41.048Z,18.02
2023-04-21T03:28:08.344Z,16.65
2023-04-21T03:30:35.543Z,16.17
2023-04-21T03:33:03.553Z,16.33
2023-04-21T03:35:34.308Z,18.80
2023-04-21T03:38:03.692Z,17.50
2023-04-21T03:40:31.280Z,17.02
2023-04-21T03:42:58.611Z,16.30
2023-04-21T03:45:25.777Z,17.13
2023-04-21T03:47:56.997Z,18.77
2023-04-21T03:50:24.309Z,18.37
2023-04-21T03:52:51.484Z,17.98
2023-04-21T03:55:18.826Z,16.67
2023-04-21T03:57:46.048Z,15.40
2023-04-21T04:00:14.034Z,16.25
2023-04-21T04:02:41.718Z,16.10
2023-04-21T04:05:09.404Z,20.80
2023-04-21T04:07:36.982Z,16.25
2023-04-21T04:10:04.566Z,17.00
2023-04-21T04:12:31.736Z,18.88
2023-04-21T04:14:59.005Z,18.38
2023-04-21T04:17:26.405Z,17.20
2023-04-21T04:19:53.618Z,17.95
2023-04-21T04:22:21.037Z,19.40
2023-04-21T04:24:48.805Z,19.08
2023-04-21T04:27:16.726Z,18.73
2023-04-21T04:29:44.046Z,19.58
2023-04-21T04:32:11.408Z,22.17
2023-04-21T04:34:38.802Z,21.48
2023-04-21T04:37:06.725Z,20.83
2023-04-21T04:39:34.065Z,20.80
2023-04-21T04:42:01.491Z,19.52
2023-04-21T04:44:28.789Z,20.13
2023-04-21T04:46:56.835Z,21.35
2023-04-21T04:49:24.253Z,22.95
2023-04-21T04:51:51.666Z,19.60
2023-04-21T04:54:19.149Z,19.42
2023-04-21T04:56:46.434Z,20.15
2023-04-21T04:59:13.638Z,20.88
2023-04-21T05:01:42.094Z,20.70
2023-04-21T05:04:09.568Z,19.90
2023-04-21T05:06:37.413Z,21.65
2023-04-21T05:09:05.095Z,20.05
2023-04-21T05:11:32.431Z,22.83
2023-04-21T05:13:59.791Z,20.75
2023-04-21T05:16:27.012Z,20.65
2023-04-21T05:18:54.303Z,18.67
2023-04-21T05:21:28.452Z,21.05
2023-04-21T05:23:59.444Z,18.27
2023-04-21T05:26:27.902Z,19.15
2023-04-21T05:28:57.518Z,21.98
2023-04-21T05:31:27.554Z,21.45
2023-04-21T05:33:54.793Z,18.75
2023-04-21T05:36:21.958Z,21.05
2023-04-21T05:38:49.211Z,18.70
2023-04-21T05:41:16.520Z,20.42
2023-04-21T05:43:43.728Z,19.42
2023-04-21T05:46:11.465Z,18.75
2023-04-21T05:48:38.846Z,19.42
2023-04-21T05:51:15.935Z,20.63
2023-04-21T05:53:44.585Z,18.20
2023-04-21T05:56:13.277Z,21.00
2023-04-21T05:58:40.464Z,18.45
2023-04-21T06:01:07.661Z,17.98
2023-04-21T06:03:35.082Z,18.65
2023-04-21T06:06:04.661Z,18.05
2023-04-21T06:08:32.399Z,19.60
2023-04-21T06:10:59.595Z,17.10
2023-04-21T06:13:29.736Z,17.90
2023-04-21T06:15:57.027Z,15.32
2023-04-21T06:18:24.302Z,17.27
2023-04-21T06:20:52.660Z,16.98
2023-04-21T06:23:19.994Z,16.10
2023-04-21T06:25:47.695Z,16.67
2023-04-21T06:28:14.823Z,17.00
2023-04-21T06:30:42.162Z,17.33
2023-04-21T06:33:09.626Z,16.75
2023-04-21T06:35:36.880Z,15.02
2023-04-21T06:38:04.010Z,13.27
2023-04-21T06:40:31.157Z,13.65
2023-04-21T06:42:58.296Z,14.23
2023-04-21T06:45:25.663Z,13.30
2023-04-21T06:47:52.932Z,14.68
2023-04-21T06:50:20.121Z,13.30
2023-04-21T06:52:47.288Z,12.63
2023-04-21T06:55:14.718Z,13.48
2023-04-21T06:57:42.071Z,14.75
2023-04-21T07:00:09.844Z,15.00
2023-04-21T07:02:37.170Z,12.52
2023-04-21T07:05:05.117Z,12.60
2023-04-21T07:07:32.424Z,11.73
2023-04-21T07:09:59.805Z,14.73
2023-04-21T07:12:26.967Z,13.10
2023-04-21T07:14:54.252Z,14.15
2023-04-21T07:17:21.394Z,11.95
2023-04-21T07:19:48.613Z,10.05
2023-04-21T07:22:15.881Z,11.63
2023-04-21T07:24:43.085Z,13.23
2023-04-21T07:27:10.207Z,12.05
2023-04-21T07:29:37.670Z,12.10
2023-04-21T07:32:05.049Z,10.20
2023-04-21T07:34:32.256Z,10.00
2023-04-21T07:36:59.347Z,10.25
2023-04-21T07:39:26.984Z,11.10
2023-04-21T07:41:54.219Z,10.50
2023-04-21T07:44:21.328Z,11.00
2023-04-21T07:46:48.498Z,10.55
2023-04-21T07:49:15.829Z,8.93
2023-04-21T07:51:43.033Z,8.93
2023-04-21T07:54:10.260Z,9.13
2023-04-21T07:56:37.411Z,9.23
2023-04-21T07:59:04.593Z,9.50
2023-04-21T08:01:31.824Z,9.50
2023-04-21T08:03:59.081Z,11.15
2023-04-21T08:06:27.693Z,9.93
2023-04-21T08:08:56.025Z,8.20
2023-04-21T08:11:23.505Z,10.35
2023-04-21T08:13:50.658Z,8.43
2023-04-21T08:16:18.004Z,9.10
2023-04-21T08:18:45.329Z,8.38
2023-04-21T08:21:12.645Z,9.95
2023-04-21T08:23:39.880Z,10.32
2023-04-21T08:26:07.352Z,9.50
2023-04-21T08:28:34.820Z,9.63
2023-04-21T08:31:02.479Z,11.40
2023-04-21T08:33:29.845Z,9.48
2023-04-21T08:36:05.450Z,8.68
2023-04-21T08:38:43.037Z,9.18
2023-04-21T08:41:10.720Z,8.30
2023-04-21T08:43:38.165Z,7.90
2023-04-21T08:46:08.325Z,8.18
2023-04-21T08:48:39.344Z,7.15
2023-04-21T08:51:10.433Z,6.40
2023-04-21T08:53:38.416Z,6.70
2023-04-21T08:58:36.397Z,7.50
2023-04-21T09:01:03.636Z,8.10
2023-04-21T09:03:31.536Z,8.48
2023-04-21T09:06:07.982Z,7.72
2023-04-21T09:08:40.235Z,7.53
2023-04-21T09:11:07.550Z,7.45
2023-04-21T09:13:38.334Z,8.48
2023-04-21T09:16:17.902Z,7.68
2023-04-21T09:18:45.365Z,7.22
2023-04-21T09:21:16.822Z,7.00
2023-04-21T09:23:47.048Z,8.15
2023-04-21T09:26:15.982Z,7.35
2023-04-21T09:28:50.895Z,7.30
2023-04-21T09:31:20.685Z,7.57
2023-04-21T09:34:00.725Z,8.73
2023-04-21T09:36:31.023Z,9.52
2023-04-21T09:41:33.966Z,9.15
2023-04-21T09:44:07.032Z,7.72
2023-04-21T09:46:36.037Z,7.25
2023-04-21T09:49:04.358Z,7.28
2023-04-21T09:51:56.328Z,3.60
2023-04-21T09:56:56.468Z,4.13
2023-04-21T09:59:32.475Z,2.97
2023-04-21T10:02:01.458Z,3.42
2023-04-21T10:04:32.056Z,3.67
2023-04-21T10:07:03.231Z,3.35
2023-04-21T10:09:54.619Z,3.53
2023-04-21T10:12:23.352Z,3.20
2023-04-21T10:14:57.192Z,4.07
2023-04-21T10:17:26.641Z,3.97
2023-04-21T10:19:57.481Z,4.25
2023-04-21T10:22:32.751Z,3.65
2023-04-21T10:25:03.589Z,5.40
2023-04-21T10:27:37.772Z,5.65
2023-04-21T10:30:26.678Z,4.28
2023-04-21T10:33:05.108Z,4.00
2023-04-21T10:36:03.246Z,3.90
2023-04-21T10:38:42.054Z,3.92
2023-04-21T10:41:28.754Z,3.85
2023-04-21T10:44:12.452Z,3.92
2023-04-21T10:46:41.313Z,4.50
2023-04-21T10:49:30.757Z,3.42
2023-04-21T10:51:58.388Z,4.05
2023-04-21T10:54:46.133Z,4.07
2023-04-21T10:57:18.184Z,3.88
2023-04-21T10:59:47.495Z,4.13
2023-04-21T11:02:16.691Z,4.43
2023-04-21T11:04:49.923Z,4.60
2023-04-21T11:07:26.220Z,4.43
2023-04-21T11:10:00.851Z,3.92
2023-04-21T11:12:33.949Z,4.70
2023-04-21T11:15:08.578Z,4.07
2023-04-21T11:17:39.325Z,5.10
2023-04-21T11:20:07.410Z,4.95
2023-04-21T11:22:37.797Z,4.75
2023-04-21T11:25:05.489Z,5.20
2023-04-21T11:27:32.794Z,5.35
2023-04-21T11:30:03.974Z,4.82
2023-04-21T11:32:31.361Z,5.10
2023-04-21T11:34:58.748Z,4.57
2023-04-21T11:37:27.220Z,3.85
2023-04-21T11:40:01.293Z,3.70
2023-04-21T11:42:29.166Z,5.68
2023-04-21T11:44:57.405Z,6.13
2023-04-21T11:47:26.548Z,5.85
2023-04-21T11:49:56.447Z,6.28
2023-04-21T11:52:33.154Z,6.05
2023-04-21T11:55:02.989Z,7.93
2023-04-21T11:57:32.576Z,7.63
2023-04-21T12:00:11.952Z,7.25
2023-04-21T12:02:39.709Z,7.88
2023-04-21T12:05:10.084Z,6.95
2023-04-21T12:07:52.062Z,7.60
2023-04-21T12:10:21.175Z,8.23
2023-04-21T12:12:48.880Z,7.32
2023-04-21T12:15:21.617Z,7.93
2023-04-21T12:17:51.316Z,8.63
2023-04-21T12:20:24.299Z,7.35
2023-04-21T12:22:52.510Z,8.32
2023-04-21T12:25:19.819Z,7.95
2023-04-21T12:28:08.047Z,8.45
2023-04-21T12:30:38.656Z,7.40
2023-04-21T12:33:08.681Z,7.50
2023-04-21T12:35:36.085Z,6.90
2023-04-21T12:38:03.267Z,7.40
2023-04-21T12:40:30.446Z,8.63
2023-04-21T12:42:57.676Z,8.10
2023-04-21T12:45:24.863Z,7.90
2023-04-21T12:47:52.078Z,7.72
2023-04-21T12:50:19.321Z,7.85
2023-04-21T12:52:46.720Z,8.80
2023-04-21T12:55:13.858Z,9.23
2023-04-21T12:57:40.996Z,9.25
2023-04-21T13:00:09.203Z,9.65
2023-04-21T13:02:38.229Z,10.25
2023-04-21T13:05:06.512Z,10.48
2023-04-21T13:07:37.271Z,10.10
2023-04-21T13:10:06.823Z,10.50
2023-04-21T13:12:34.310Z,9.98
2023-04-21T13:15:01.722Z,8.95
2023-04-21T13:17:30.134Z,9.30
2023-04-21T13:19:57.381Z,7.07
2023-04-21T13:22:24.678Z,7.57
2023-04-21T13:24:51.792Z,7.32
2023-04-21T13:27:18.939Z,6.85
2023-04-21T13:29:47.703Z,6.68
2023-04-21T13:32:15.485Z,8.23
2023-04-21T13:34:42.731Z,7.35
2023-04-21T13:37:12.633Z,7.57
2023-04-21T13:39:40.084Z,7.68
2023-04-21T13:42:07.503Z,6.80
2023-04-21T13:44:34.739Z,5.97
2023-04-21T13:47:02.108Z,6.03
2023-04-21T13:49:29.571Z,5.63
2023-04-21T13:51:56.788Z,5.57
2023-04-21T13:54:24.636Z,6.13
2023-04-21T13:56:51.973Z,6.63
2023-04-21T13:59:21.120Z,7.05
2023-04-21T14:01:48.598Z,6.53
2023-04-21T14:04:16.019Z,7.47
2023-04-21T14:06:43.495Z,6.40
2023-04-21T14:09:10.960Z,6.45
2023-04-21T14:11:38.309Z,7.57
2023-04-21T14:14:09.993Z,6.88
2023-04-21T14:16:38.872Z,5.90
2023-04-21T14:19:06.906Z,6.10
2023-04-21T14:21:34.768Z,6.88
2023-04-21T14:24:02.146Z,6.82
2023-04-21T14:26:29.408Z,8.18
2023-04-21T14:28:56.648Z,7.43
2023-04-21T14:31:23.942Z,7.35
2023-04-21T14:33:51.143Z,9.40
2023-04-21T14:36:18.507Z,8.90
2023-04-21T14:38:45.863Z,8.55
2023-04-21T14:41:13.416Z,8.25
2023-04-21T14:43:40.804Z,7.30
2023-04-21T14:46:08.617Z,7.63
2023-04-21T14:48:35.983Z,7.65
2023-04-21T14:51:03.295Z,8.02
2023-04-21T14:53:30.664Z,8.00
2023-04-21T14:55:57.910Z,7.75
2023-04-21T14:58:25.255Z,8.82
2023-04-21T15:00:52.564Z,8.30
2023-04-21T15:03:19.952Z,8.68
2023-04-21T15:05:47.327Z,8.30
2023-04-21T15:08:18.456Z,8.60
2023-04-21T15:10:45.904Z,9.18
2023-04-21T15:13:13.994Z,8.13
2023-04-21T15:15:41.911Z,8.35
2023-04-21T15:18:09.333Z,9.27
2023-04-21T15:20:44.394Z,10.82
2023-04-21T15:23:13.249Z,8.52
2023-04-21T15:25:40.751Z,9.02
2023-04-21T15:28:08.746Z,9.27
2023-04-21T15:30:36.176Z,9.75
2023-04-21T15:33:03.805Z,11.52
2023-04-21T15:35:32.191Z,10.45
2023-04-21T15:37:59.657Z,13.32
2023-04-21T15:40:27.255Z,12.40
2023-04-21T15:42:54.903Z,15.35
2023-04-21T15:45:22.173Z,15.43
2023-04-21T15:47:50.399Z,16.38
2023-04-21T15:50:17.787Z,16.90
2023-04-21T15:52:45.050Z,15.40
2023-04-21T15:55:12.596Z,15.43
2023-04-21T15:57:39.960Z,16.05
2023-04-21T16:00:10.220Z,15.82
2023-04-21T16:02:38.258Z,14.48
2023-04-21T16:05:06.229Z,15.27
2023-04-21T16:07:33.672Z,18.35
2023-04-21T16:10:01.044Z,16.15
2023-04-21T16:12:28.688Z,17.48
2023-04-21T16:15:04.145Z,16.63
2023-04-21T16:17:36.906Z,17.30
2023-04-21T16:20:07.429Z,14.95
2023-04-21T16:22:34.980Z,16.25
2023-04-21T16:25:02.310Z,16.77
2023-04-21T16:27:29.802Z,18.33
2023-04-21T16:29:57.436Z,17.63
2023-04-21T16:32:24.987Z,16.38
2023-04-21T16:34:52.346Z,18.05
2023-04-21T16:37:19.644Z,15.50
2023-04-21T16:39:46.849Z,14.57
2023-04-21T16:42:14.148Z,13.13
2023-04-21T16:44:41.592Z,14.60
2023-04-21T16:47:08.903Z,12.85
2023-04-21T16:49:36.108Z,16.63
2023-04-21T16:52:03.227Z,16.35
2023-04-21T16:54:30.591Z,16.45
2023-04-21T16:56:57.835Z,16.77
2023-04-21T16:59:25.045Z,20.88
2023-04-21T17:01:52.481Z,19.00
2023-04-21T17:04:19.872Z,22.40
2023-04-21T17:06:48.301Z,20.73
2023-04-21T17:09:15.746Z,21.92
2023-04-21T17:11:43.833Z,19.67
2023-04-21T17:14:10.948Z,18.70
2023-04-21T17:16:38.175Z,19.85
2023-04-21T17:19:05.602Z,19.20
2023-04-21T17:21:32.817Z,19.05
2023-04-21T17:24:00.656Z,17.88
2023-04-21T17:26:28.016Z,21.42
2023-04-21T17:28:55.103Z,18.83
2023-04-21T17:31:22.198Z,21.95
2023-04-21T17:33:49.516Z,22.95
2023-04-21T17:36:17.036Z,21.77
2023-04-21T17:38:44.331Z,26.13
2023-04-21T17:41:11.690Z,22.08
2023-04-21T17:43:38.919Z,24.13
2023-04-21T17:46:07.571Z,23.50
2023-04-21T17:48:34.968Z,24.40
2023-04-21T17:51:02.190Z,24.42
2023-04-21T17:53:29.481Z,23.58
2023-04-21T17:55:56.979Z,28.27
2023-04-21T17:58:26.353Z,25.13
2023-04-21T18:00:54.675Z,25.70
2023-04-21T18:03:22.196Z,24.98
2023-04-21T18:05:50.212Z,25.00
2023-04-21T18:08:17.498Z,23.30
2023-04-21T18:10:44.788Z,21.70
2023-04-21T18:13:12.014Z,21.42
2023-04-21T18:15:39.757Z,22.40
2023-04-21T18:18:06.951Z,22.15
2023-04-21T18:20:34.238Z,21.40
2023-04-21T18:23:01.358Z,22.27
2023-04-21T18:25:41.375Z,22.02
2023-04-21T18:28:11.042Z,23.35
2023-04-21T18:30:39.491Z,24.17
2023-04-21T18:33:06.940Z,20.30
2023-04-21T18:35:34.362Z,21.92
2023-04-21T18:38:01.763Z,20.95
2023-04-21T18:40:29.035Z,22.25
2023-04-21T18:42:56.942Z,21.58
2023-04-21T18:45:24.072Z,23.92
2023-04-21T18:47:51.126Z,23.60
2023-04-21T18:50:18.473Z,25.52
2023-04-21T18:52:45.718Z,23.58
2023-04-21T18:55:13.794Z,20.95
2023-04-21T18:57:41.454Z,20.13
2023-04-21T19:00:10.127Z,17.70
2023-04-21T19:02:38.231Z,20.02
2023-04-21T19:05:06.375Z,24.67
2023-04-21T19:07:35.081Z,18.98
2023-04-21T19:10:02.261Z,18.80
2023-04-21T19:12:29.381Z,18.25
2023-04-21T19:14:56.612Z,17.05
2023-04-21T19:17:23.787Z,19.35
2023-04-21T19:19:51.216Z,20.45
2023-04-21T19:22:20.076Z,21.48
2023-04-21T19:24:47.514Z,20.58
2023-04-21T19:27:14.824Z,18.83
2023-04-21T19:29:42.642Z,19.35
2023-04-21T19:32:09.958Z,19.00
2023-04-21T19:34:37.471Z,19.42
2023-04-21T19:37:05.278Z,22.40
2023-04-21T19:39:33.005Z,19.35
2023-04-21T19:42:01.184Z,17.55
2023-04-21T19:44:28.414Z,16.95
2023-04-21T19:46:55.504Z,17.92
2023-04-21T19:49:23.096Z,17.05
2023-04-21T19:51:50.302Z,16.17
2023-04-21T19:54:17.738Z,19.20
2023-04-21T19:56:45.032Z,18.60
2023-04-21T19:59:12.244Z,21.15
2023-04-21T20:01:39.701Z,20.05
2023-04-21T20:04:07.379Z,18.10
2023-04-21T20:06:36.367Z,16.85
2023-04-21T20:09:05.878Z,16.63
2023-04-21T20:11:34.059Z,17.00
2023-04-21T20:14:01.224Z,16.67
2023-04-21T20:16:28.875Z,15.15
2023-04-21T20:18:56.179Z,16.80
2023-04-21T20:21:23.400Z,15.35
2023-04-21T20:23:50.598Z,19.58
2023-04-21T20:26:17.874Z,15.07
2023-04-21T20:28:45.066Z,18.73
2023-04-21T20:31:12.274Z,17.23
2023-04-21T20:33:39.511Z,18.08
2023-04-21T20:36:09.420Z,19.80
2023-04-21T20:38:36.556Z,20.58
2023-04-21T20:41:03.640Z,18.70
2023-04-21T20:43:34.278Z,17.85
2023-04-21T20:46:01.714Z,17.83
2023-04-21T20:48:29.006Z,19.60
2023-04-21T20:50:56.507Z,22.13
2023-04-21T20:53:23.915Z,19.70
2023-04-21T20:55:51.144Z,24.10
2023-04-21T20:58:18.439Z,20.17
2023-04-21T21:00:45.767Z,20.00
2023-04-21T21:03:13.850Z,17.52
2023-04-21T21:05:41.601Z,18.83
2023-04-21T21:08:09.176Z,17.38
2023-04-21T21:10:36.347Z,20.35
2023-04-21T21:13:03.792Z,17.58
2023-04-21T21:15:31.116Z,19.02
2023-04-21T21:17:58.839Z,19.88
2023-04-21T21:20:26.262Z,20.55
2023-04-21T21:22:53.580Z,21.38
2023-04-21T21:25:21.173Z,23.25
2023-04-21T21:27:48.434Z,20.67
2023-04-21T21:30:15.765Z,21.02
2023-04-21T21:32:43.264Z,21.80
2023-04-21T21:35:12.121Z,18.20
2023-04-21T21:37:39.725Z,17.42
2023-04-21T21:40:07.817Z,18.25
2023-04-21T21:42:35.017Z,17.55
2023-04-21T21:45:02.286Z,20.95
2023-04-21T21:47:35.436Z,19.02
2023-04-21T21:50:03.751Z,18.60
2023-04-21T21:52:31.070Z,16.10
2023-04-21T21:54:58.567Z,17.20
2023-04-21T21:57:26.154Z,17.25
2023-04-21T21:59:53.519Z,18.05
2023-04-21T22:02:20.817Z,20.63
2023-04-21T22:04:48.096Z,18.85
2023-04-21T22:07:15.952Z,22.10
2023-04-21T22:09:43.202Z,20.48
2023-04-21T22:12:10.372Z,19.23
2023-04-21T22:14:37.672Z,26.27
2023-04-21T22:17:06.775Z,19.88
2023-04-21T22:19:34.148Z,22.92
2023-04-21T22:22:01.290Z,19.35
2023-04-21T22:24:28.471Z,19.63
2023-04-21T22:26:55.719Z,21.00
2023-04-21T22:29:22.892Z,19.60
2023-04-21T22:31:50.149Z,21.15
2023-04-21T22:34:19.606Z,22.95
2023-04-21T22:36:46.828Z,20.67
2023-04-21T22:39:13.999Z,18.27
2023-04-21T22:41:41.302Z,22.15
2023-04-21T22:44:08.754Z,19.15
2023-04-21T22:46:37.335Z,19.42
2023-04-21T22:49:05.226Z,19.48
2023-04-21T22:51:32.742Z,18.02
2023-04-21T22:54:00.626Z,18.45
2023-04-21T22:56:28.650Z,18.45
2023-04-21T22:58:55.897Z,21.98
2023-04-21T23:01:23.369Z,19.45
2023-04-21T23:03:50.823Z,18.73
2023-04-21T23:06:18.133Z,18.83
2023-04-21T23:08:45.498Z,20.27
2023-04-21T23:11:13.541Z,17.60
2023-04-21T23:13:41.088Z,17.42
2023-04-21T23:16:08.274Z,19.15
2023-04-21T23:18:35.976Z,18.58
2023-04-21T23:21:03.225Z,21.65
2023-04-21T23:23:30.516Z,21.58
2023-04-21T23:25:57.653Z,20.67
2023-04-21T23:28:24.834Z,21.08
2023-04-21T23:30:52.054Z,20.88
2023-04-21T23:33:19.260Z,21.42
2023-04-21T23:35:46.527Z,22.33
2023-04-21T23:38:13.761Z,19.88
2023-04-21T23:40:41.377Z,18.92
2023-04-21T23:43:08.546Z,18.80
2023-04-21T23:45:36.031Z,20.00
2023-04-21T23:48:03.336Z,18.15
2023-04-21T23:50:30.617Z,17.60
2023-04-21T23:52:57.806Z,16.25
2023-04-21T23:55:25.031Z,17.35
2023-04-21T23:57:52.140Z,17.35
